createdAt,value
2023-01-19T00:00:13.076Z,1.95
2023-01-19T00:02:39.810Z,2.08
2023-01-19T00:05:07.049Z,2.10
2023-01-19T00:07:33.978Z,4.78
2023-01-19T00:10:00.558Z,3.50
2023-01-19T00:12:27.271Z,2.75
2023-01-19T00:14:53.827Z,2.10
2023-01-19T00:17:20.374Z,3.00
2023-01-19T00:19:47.161Z,1.92
2023-01-19T00:22:13.723Z,2.03
2023-01-19T00:24:40.389Z,1.83
2023-01-19T00:27:06.961Z,3.03
2023-01-19T00:29:34.372Z,2.20
2023-01-19T00:32:01.918Z,1.98
2023-01-19T00:34:36.780Z,1.95
2023-01-19T00:37:04.342Z,2.30
2023-01-19T00:39:30.900Z,2.67
2023-01-19T00:42:17.367Z,2.60
2023-01-19T00:44:44.049Z,2.63
2023-01-19T00:47:10.657Z,3.13
2023-01-19T00:49:37.331Z,3.30
2023-01-19T00:52:04.282Z,2.35
2023-01-19T00:54:30.854Z,2.53
2023-01-19T00:56:57.434Z,3.22
2023-01-19T00:59:25.812Z,2.72
2023-01-19T01:01:52.548Z,2.50
2023-01-19T01:04:19.155Z,2.78
2023-01-19T01:06:45.766Z,2.95
2023-01-19T01:09:12.380Z,2.47
2023-01-19T01:11:40.259Z,2.88
2023-01-19T01:14:07.811Z,3.13
2023-01-19T01:16:34.458Z,2.97
2023-01-19T01:19:01.121Z,2.05
2023-01-19T01:21:27.788Z,3.45
2023-01-19T01:23:54.519Z,2.70
2023-01-19T01:26:21.145Z,2.92
2023-01-19T01:28:47.673Z,2.63
2023-01-19T01:31:14.454Z,3.22
2023-01-19T01:33:41.881Z,2.88
2023-01-19T01:36:09.882Z,2.65
2023-01-19T01:38:36.530Z,4.57
2023-01-19T01:41:03.414Z,4.03
2023-01-19T01:43:49.347Z,3.60
2023-01-19T01:46:18.072Z,3.60
2023-01-19T01:48:50.299Z,3.70
2023-01-19T01:51:29.658Z,2.75
2023-01-19T01:54:06.825Z,2.60
2023-01-19T01:59:07.628Z,3.85
2023-01-19T02:01:54.671Z,4.10
2023-01-19T02:04:23.123Z,3.03
2023-01-19T02:07:10.199Z,3.25
2023-01-19T02:09:57.615Z,3.42
2023-01-19T02:12:44.801Z,2.97
2023-01-19T02:15:16.712Z,3.17
2023-01-19T02:17:43.479Z,3.72
2023-01-19T02:20:10.981Z,3.53
2023-01-19T02:22:47.385Z,3.13
2023-01-19T02:25:15.014Z,3.30
2023-01-19T02:27:42.549Z,3.95
2023-01-19T02:30:10.902Z,2.78
2023-01-19T02:32:37.666Z,3.22
2023-01-19T02:35:04.657Z,3.67
2023-01-19T02:37:37.537Z,2.63
2023-01-19T02:40:10.361Z,3.40
2023-01-19T02:42:43.973Z,2.85
2023-01-19T02:45:14.499Z,3.03
2023-01-19T02:47:45.842Z,4.18
2023-01-19T02:50:38.330Z,3.25
2023-01-19T02:53:17.673Z,3.05
2023-01-19T02:55:54.023Z,2.58
2023-01-19T02:58:33.853Z,2.78
2023-01-19T03:03:52.521Z,2.95
2023-01-19T03:06:33.516Z,3.65
2023-01-19T03:09:13.247Z,4.18
2023-01-19T03:11:43.514Z,3.60
2023-01-19T03:14:18.175Z,3.90
2023-01-19T03:16:51.301Z,3.65
2023-01-19T03:22:02.568Z,4.50
2023-01-19T03:24:36.905Z,4.32
2023-01-19T03:27:12.231Z,3.72
2023-01-19T03:29:42.241Z,2.28
2023-01-19T03:32:15.415Z,4.13
2023-01-19T03:34:43.908Z,3.70
2023-01-19T03:37:13.478Z,2.25
2023-01-19T03:39:40.312Z,2.53
2023-01-19T03:42:12.968Z,2.72
2023-01-19T03:44:42.061Z,4.00
2023-01-19T03:47:11.300Z,3.65
2023-01-19T03:49:41.685Z,3.67
2023-01-19T03:52:08.548Z,2.40
2023-01-19T03:54:35.146Z,3.65
2023-01-19T03:57:01.746Z,2.28
2023-01-19T03:59:28.290Z,4.15
2023-01-19T04:01:55.041Z,2.35
2023-01-19T04:04:21.749Z,3.33
2023-01-19T04:06:48.329Z,3.40
2023-01-19T04:09:14.910Z,3.15
2023-01-19T04:11:41.477Z,3.15
2023-01-19T04:14:08.066Z,3.47
2023-01-19T04:16:34.640Z,2.00
2023-01-19T04:19:01.210Z,2.60
2023-01-19T04:21:27.739Z,2.90
2023-01-19T04:23:54.637Z,3.22
2023-01-19T04:26:21.369Z,3.45
2023-01-19T04:28:47.991Z,3.17
2023-01-19T04:31:14.701Z,1.63
2023-01-19T04:33:41.340Z,3.15
2023-01-19T04:36:08.580Z,3.28
2023-01-19T04:38:35.409Z,3.03
2023-01-19T04:41:01.963Z,3.20
2023-01-19T04:43:28.543Z,2.45
2023-01-19T04:45:55.400Z,3.60
2023-01-19T04:48:22.046Z,3.40
2023-01-19T04:50:51.694Z,2.05
2023-01-19T04:53:18.549Z,3.10
2023-01-19T04:55:45.398Z,4.35
2023-01-19T04:58:12.070Z,2.85
2023-01-19T05:00:38.602Z,4.05
2023-01-19T05:03:05.851Z,2.33
2023-01-19T05:05:33.245Z,2.40
2023-01-19T05:08:00.619Z,2.95
2023-01-19T05:10:27.177Z,3.08
2023-01-19T05:12:53.750Z,3.90
2023-01-19T05:15:20.303Z,3.58
2023-01-19T05:17:46.919Z,2.88
2023-01-19T05:20:16.037Z,3.35
2023-01-19T05:22:43.577Z,3.65
2023-01-19T05:25:10.125Z,1.98
2023-01-19T05:27:37.615Z,3.97
2023-01-19T05:30:05.635Z,4.18
2023-01-19T05:32:32.309Z,3.63
2023-01-19T05:34:59.034Z,3.58
2023-01-19T05:37:25.618Z,2.22
2023-01-19T05:39:52.778Z,5.25
2023-01-19T05:42:19.351Z,4.05
2023-01-19T05:44:45.918Z,2.70
2023-01-19T05:47:12.510Z,3.25
2023-01-19T05:49:39.143Z,3.40
2023-01-19T05:52:05.706Z,3.28
2023-01-19T05:54:32.294Z,2.30
2023-01-19T05:56:59.103Z,3.10
2023-01-19T05:59:25.779Z,3.63
2023-01-19T06:01:53.078Z,3.65
2023-01-19T06:04:20.794Z,1.73
2023-01-19T06:06:48.738Z,2.13
2023-01-19T06:09:15.347Z,4.18
2023-01-19T06:11:42.020Z,1.98
2023-01-19T06:14:10.802Z,3.22
2023-01-19T06:16:37.752Z,3.53
2023-01-19T06:19:04.604Z,4.00
2023-01-19T06:21:31.560Z,3.95
2023-01-19T06:23:58.853Z,3.05
2023-01-19T06:26:26.216Z,2.83
2023-01-19T06:28:53.107Z,3.60
2023-01-19T06:31:19.747Z,2.65
2023-01-19T06:33:46.916Z,2.15
2023-01-19T06:36:13.672Z,1.77
2023-01-19T06:38:40.359Z,3.45
2023-01-19T06:41:06.916Z,2.58
2023-01-19T06:43:33.563Z,2.80
2023-01-19T06:46:00.735Z,2.67
2023-01-19T06:48:27.440Z,3.88
2023-01-19T06:50:54.032Z,2.67
2023-01-19T06:53:22.286Z,2.30
2023-01-19T06:55:48.991Z,2.40
2023-01-19T06:58:15.784Z,2.70
2023-01-19T07:00:43.109Z,3.35
2023-01-19T07:03:19.302Z,3.40
2023-01-19T07:05:45.911Z,3.30
2023-01-19T07:08:13.009Z,3.33
2023-01-19T07:11:26.869Z,3.47
2023-01-19T07:13:26.102Z,3.28
2023-01-19T07:15:52.873Z,2.60
2023-01-19T07:18:19.398Z,4.85
2023-01-19T07:20:46.925Z,2.47
2023-01-19T07:23:13.574Z,2.65
2023-01-19T07:25:40.178Z,1.38
2023-01-19T07:28:07.094Z,1.80
2023-01-19T07:30:33.688Z,2.72
2023-01-19T07:33:00.672Z,2.35
2023-01-19T07:35:29.708Z,2.22
2023-01-19T07:37:56.262Z,1.60
2023-01-19T07:40:24.119Z,3.20
2023-01-19T07:42:52.111Z,2.75
2023-01-19T07:45:21.403Z,2.95
2023-01-19T07:47:48.993Z,2.08
2023-01-19T07:50:17.120Z,1.48
2023-01-19T07:52:44.784Z,4.22
2023-01-19T07:55:11.427Z,2.40
2023-01-19T07:57:38.029Z,3.17
2023-01-19T08:00:05.144Z,3.33
2023-01-19T08:02:34.034Z,2.65
2023-01-19T08:05:00.605Z,4.22
2023-01-19T08:07:27.201Z,3.05
2023-01-19T08:09:53.916Z,2.20
2023-01-19T08:12:20.513Z,2.95
2023-01-19T08:14:47.060Z,4.07
2023-01-19T08:17:14.110Z,3.45
2023-01-19T08:19:42.198Z,2.65
2023-01-19T08:22:08.871Z,1.65
2023-01-19T08:24:35.463Z,1.75
2023-01-19T08:27:03.615Z,2.58
2023-01-19T08:29:31.975Z,4.25
2023-01-19T08:32:00.218Z,3.00
2023-01-19T08:34:27.224Z,3.78
2023-01-19T08:36:54.282Z,3.50
2023-01-19T08:39:20.898Z,5.43
2023-01-19T08:41:48.675Z,4.97
2023-01-19T08:44:16.040Z,4.88
2023-01-19T08:46:42.668Z,4.45
2023-01-19T08:49:09.416Z,2.88
2023-01-19T08:51:36.022Z,3.92
2023-01-19T08:54:02.663Z,2.67
2023-01-19T08:56:29.276Z,2.45
2023-01-19T08:59:08.137Z,3.60
2023-01-19T09:01:35.087Z,4.90
2023-01-19T09:04:02.199Z,3.50
2023-01-19T09:06:29.191Z,4.13
2023-01-19T09:08:55.734Z,8.90
2023-01-19T09:11:22.334Z,9.25
2023-01-19T09:13:49.013Z,4.78
2023-01-19T09:16:15.974Z,10.20
2023-01-19T09:18:42.910Z,16.23
2023-01-19T09:21:09.484Z,7.82
2023-01-19T09:23:36.217Z,17.58
2023-01-19T09:26:04.743Z,53.55
2023-01-19T09:28:32.099Z,16.48
2023-01-19T09:30:58.819Z,16.30
2023-01-19T09:33:25.441Z,9.10
2023-01-19T09:35:52.199Z,11.07
2023-01-19T09:38:19.830Z,10.45
2023-01-19T09:46:41.624Z,8.32
2023-01-19T09:49:20.019Z,17.02
2023-01-19T09:51:48.936Z,8.45
2023-01-19T09:54:27.305Z,19.17
2023-01-19T09:56:55.261Z,5.70
2023-01-19T09:59:26.125Z,6.85
2023-01-19T10:09:56.764Z,3.78
2023-01-19T10:12:35.773Z,2.25
2023-01-19T10:15:22.074Z,2.13
2023-01-19T10:21:05.597Z,3.65
2023-01-19T10:23:38.560Z,2.63
2023-01-19T10:26:15.943Z,2.00
2023-01-19T10:28:45.464Z,2.90
2023-01-19T10:31:12.538Z,5.88
2023-01-19T10:33:39.412Z,4.63
2023-01-19T10:36:16.707Z,2.72
2023-01-19T10:38:43.755Z,4.72
2023-01-19T10:41:17.833Z,4.82
2023-01-19T10:43:47.357Z,3.35
2023-01-19T10:46:33.516Z,3.08
2023-01-19T10:49:00.497Z,2.60
2023-01-19T10:51:27.269Z,2.97
2023-01-19T10:53:58.152Z,2.97
2023-01-19T10:56:29.808Z,2.88
2023-01-19T10:58:57.475Z,2.92
2023-01-19T11:01:27.135Z,2.47
2023-01-19T11:03:55.594Z,2.53
2023-01-19T11:06:28.179Z,2.90
2023-01-19T11:09:12.081Z,1.98
2023-01-19T11:11:45.281Z,1.95
2023-01-19T11:14:14.999Z,1.95
2023-01-19T11:16:47.354Z,1.50
2023-01-19T11:19:20.771Z,1.58
2023-01-19T11:21:48.587Z,1.98
2023-01-19T11:24:16.752Z,2.10
2023-01-19T11:29:25.630Z,1.33
2023-01-19T11:31:54.277Z,1.85
2023-01-19T11:34:38.707Z,1.35
2023-01-19T11:37:27.464Z,1.25
2023-01-19T11:39:57.932Z,1.20
2023-01-19T11:42:26.313Z,1.02
2023-01-19T11:47:38.413Z,1.95
2023-01-19T11:50:14.535Z,1.98
2023-01-19T11:57:55.549Z,3.38
2023-01-19T12:06:11.117Z,3.03
2023-01-19T12:08:43.946Z,2.58
2023-01-19T12:11:16.533Z,2.72
2023-01-19T12:13:44.967Z,3.00
2023-01-19T12:16:30.890Z,3.78
2023-01-19T12:19:06.711Z,3.45
2023-01-19T12:21:33.380Z,2.95
2023-01-19T12:24:13.764Z,4.35
2023-01-19T12:27:00.452Z,6.28
2023-01-19T12:29:31.404Z,2.75
2023-01-19T12:34:52.094Z,2.08
2023-01-19T12:37:38.913Z,0.93
2023-01-19T12:40:32.382Z,1.50
2023-01-19T12:43:05.230Z,1.15
2023-01-19T12:45:35.480Z,2.15
2023-01-19T12:48:04.067Z,1.35
2023-01-19T12:50:38.315Z,1.52
2023-01-19T12:53:16.829Z,1.23
2023-01-19T12:55:46.908Z,1.67
2023-01-19T12:58:18.814Z,1.45
2023-01-19T13:00:48.513Z,1.52
2023-01-19T13:05:56.132Z,1.38
2023-01-19T13:08:26.731Z,1.25
2023-01-19T13:13:33.441Z,1.10
2023-01-19T13:19:21.191Z,0.77
2023-01-19T13:21:48.732Z,0.68
2023-01-19T13:24:19.756Z,1.20
2023-01-19T13:32:21.169Z,1.92
2023-01-19T13:34:54.678Z,2.22
2023-01-19T13:37:24.152Z,2.35
2023-01-19T13:39:54.128Z,0.82
2023-01-19T13:42:34.261Z,2.05
2023-01-19T13:45:07.167Z,1.70
2023-01-19T13:47:42.410Z,1.70
2023-01-19T13:50:20.193Z,2.35
2023-01-19T13:52:48.888Z,2.80
2023-01-19T13:55:16.422Z,1.83
2023-01-19T13:57:46.129Z,1.52
2023-01-19T14:05:43.345Z,1.50
2023-01-19T14:13:26.460Z,0.55
2023-01-19T14:15:57.639Z,0.60
2023-01-19T14:18:33.214Z,0.28
2023-01-19T14:29:33.507Z,2.08
2023-01-19T14:37:49.088Z,2.10
2023-01-19T14:43:13.316Z,0.57
2023-01-19T14:45:41.524Z,0.77
2023-01-19T14:48:19.583Z,0.55
2023-01-19T14:51:02.407Z,0.50
2023-01-19T14:53:36.668Z,1.02
2023-01-19T14:56:05.791Z,1.05
2023-01-19T14:58:34.581Z,0.65
2023-01-19T15:01:01.916Z,0.80
2023-01-19T15:03:43.690Z,0.65
2023-01-19T15:06:15.690Z,0.45
2023-01-19T15:08:43.934Z,0.93
2023-01-19T15:14:13.780Z,1.58
2023-01-19T15:16:41.126Z,2.40
2023-01-19T15:19:17.056Z,1.92
2023-01-19T15:21:46.521Z,1.85
2023-01-19T15:24:15.848Z,2.42
2023-01-19T15:26:43.961Z,2.30
2023-01-19T15:29:26.821Z,2.80
2023-01-19T15:31:53.562Z,2.95
2023-01-19T15:34:20.355Z,3.17
2023-01-19T15:36:47.040Z,2.75
2023-01-19T15:39:13.621Z,1.20
2023-01-19T15:41:40.508Z,2.47
2023-01-19T15:44:10.162Z,3.45
2023-01-19T15:46:37.109Z,2.75
2023-01-19T15:49:05.839Z,8.02
2023-01-19T15:51:33.189Z,2.70
2023-01-19T15:53:59.785Z,3.15
2023-01-19T15:56:29.192Z,3.53
2023-01-19T15:58:56.255Z,4.90
2023-01-19T16:01:31.617Z,6.93
2023-01-19T16:04:00.609Z,19.20
2023-01-19T16:06:27.543Z,10.13
2023-01-19T16:08:59.718Z,12.88
2023-01-19T16:11:27.819Z,9.48
2023-01-19T16:13:54.839Z,10.38
2023-01-19T16:16:23.621Z,10.18
2023-01-19T16:18:51.512Z,3.88
2023-01-19T16:21:18.086Z,4.22
2023-01-19T16:23:44.647Z,4.22
2023-01-19T16:26:35.598Z,5.10
2023-01-19T16:29:10.706Z,4.22
2023-01-19T16:31:39.091Z,2.60
2023-01-19T16:34:05.857Z,3.22
2023-01-19T16:36:34.258Z,2.80
2023-01-19T16:39:04.226Z,2.65
2023-01-19T16:41:31.167Z,2.70
2023-01-19T16:43:58.392Z,3.78
2023-01-19T16:46:30.160Z,2.45
2023-01-19T16:49:02.543Z,2.90
2023-01-19T16:51:29.332Z,2.83
2023-01-19T16:53:55.918Z,2.78
2023-01-19T16:56:22.450Z,2.92
2023-01-19T16:58:53.475Z,2.25
2023-01-19T17:01:20.486Z,3.33
2023-01-19T17:03:47.422Z,1.65
2023-01-19T17:06:18.083Z,3.10
2023-01-19T17:08:44.703Z,2.40
2023-01-19T17:11:14.074Z,3.17
2023-01-19T17:13:40.656Z,4.72
2023-01-19T17:16:07.919Z,5.00
2023-01-19T17:18:36.014Z,5.20
2023-01-19T17:21:04.972Z,2.03
2023-01-19T17:23:32.758Z,3.50
2023-01-19T17:26:00.035Z,3.05
2023-01-19T17:28:26.839Z,2.33
2023-01-19T17:30:53.841Z,3.33
2023-01-19T17:33:22.281Z,3.50
2023-01-19T17:35:49.251Z,1.67
2023-01-19T17:38:16.721Z,2.00
2023-01-19T17:40:43.352Z,3.88
2023-01-19T17:43:09.933Z,5.80
2023-01-19T17:45:37.321Z,4.90
2023-01-19T17:48:04.995Z,7.00
2023-01-19T17:50:34.646Z,4.85
2023-01-19T17:53:01.389Z,3.58
2023-01-19T17:55:27.991Z,3.42
2023-01-19T17:57:54.572Z,4.30
2023-01-19T18:00:21.385Z,4.65
2023-01-19T18:02:50.792Z,4.40
2023-01-19T18:05:18.580Z,2.22
2023-01-19T18:07:45.674Z,4.03
2023-01-19T18:10:12.997Z,4.57
2023-01-19T18:12:39.724Z,6.60
2023-01-19T18:15:07.748Z,4.35
2023-01-19T18:17:38.584Z,5.10
2023-01-19T18:20:05.726Z,4.15
2023-01-19T18:22:32.290Z,7.28
2023-01-19T18:24:59.305Z,4.35
2023-01-19T18:27:25.925Z,6.00
2023-01-19T18:29:55.664Z,6.32
2023-01-19T18:32:27.148Z,5.63
2023-01-19T18:34:54.078Z,5.63
2023-01-19T18:37:22.100Z,5.85
2023-01-19T18:39:48.664Z,4.85
2023-01-19T18:42:15.224Z,5.75
2023-01-19T18:44:41.771Z,6.13
2023-01-19T18:47:08.362Z,4.95
2023-01-19T18:49:37.606Z,7.38
2023-01-19T18:52:04.405Z,5.82
2023-01-19T18:54:31.076Z,6.63
2023-01-19T18:56:58.398Z,7.43
2023-01-19T18:59:25.552Z,5.30
2023-01-19T19:01:52.241Z,3.47
2023-01-19T19:04:18.883Z,5.38
2023-01-19T19:06:45.427Z,2.67
2023-01-19T19:09:11.955Z,2.35
2023-01-19T19:11:38.517Z,3.42
2023-01-19T19:14:06.134Z,3.25
2023-01-19T19:16:35.404Z,3.22
2023-01-19T19:19:02.774Z,4.57
2023-01-19T19:21:29.389Z,5.05
2023-01-19T19:23:57.893Z,4.93
2023-01-19T19:26:26.239Z,5.85
2023-01-19T19:28:52.880Z,5.95
2023-01-19T19:31:22.142Z,5.55
2023-01-19T19:33:50.845Z,6.13
2023-01-19T19:36:17.963Z,8.68
2023-01-19T19:38:46.427Z,11.68
2023-01-19T19:41:15.920Z,12.65
2023-01-19T19:43:43.120Z,5.00
2023-01-19T19:46:12.113Z,3.67
2023-01-19T19:48:39.547Z,3.03
2023-01-19T19:53:59.390Z,3.92
2023-01-19T19:56:28.994Z,5.88
2023-01-19T19:58:57.518Z,6.03
2023-01-19T20:01:32.047Z,5.43
2023-01-19T20:04:06.800Z,6.07
2023-01-19T20:06:38.620Z,4.60
2023-01-19T20:09:07.092Z,4.20
2023-01-19T20:11:33.695Z,4.20
2023-01-19T20:14:01.092Z,3.80
2023-01-19T20:16:27.808Z,2.60
2023-01-19T20:18:54.978Z,3.53
2023-01-19T20:21:24.297Z,3.72
2023-01-19T20:23:53.001Z,3.75
2023-01-19T20:26:22.824Z,2.67
2023-01-19T20:28:49.454Z,2.78
2023-01-19T20:31:19.421Z,2.92
2023-01-19T20:33:48.455Z,3.08
2023-01-19T20:36:15.403Z,1.75
2023-01-19T20:38:42.794Z,1.92
2023-01-19T20:41:11.883Z,2.65
2023-01-19T20:43:39.197Z,2.13
2023-01-19T20:46:06.799Z,0.80
2023-01-19T20:48:33.628Z,1.40
2023-01-19T20:51:02.926Z,1.90
2023-01-19T20:53:29.796Z,1.55
2023-01-19T20:55:56.650Z,1.60
2023-01-19T20:58:23.805Z,1.33
2023-01-19T21:00:50.860Z,1.65
2023-01-19T21:03:17.510Z,0.98
2023-01-19T21:05:48.836Z,1.60
2023-01-19T21:08:15.705Z,1.52
2023-01-19T21:10:46.118Z,2.22
2023-01-19T21:13:12.703Z,1.40
2023-01-19T21:15:39.230Z,1.90
2023-01-19T21:18:06.004Z,1.80
2023-01-19T21:20:33.131Z,1.40
2023-01-19T21:22:59.733Z,1.75
2023-01-19T21:25:26.308Z,0.77
2023-01-19T21:27:53.366Z,0.75
2023-01-19T21:30:20.430Z,1.58
2023-01-19T21:32:46.976Z,1.70
2023-01-19T21:35:14.145Z,2.08
2023-01-19T21:37:41.054Z,1.20
2023-01-19T21:40:08.140Z,1.50
2023-01-19T21:42:35.023Z,1.38
2023-01-19T21:45:01.646Z,1.52
2023-01-19T21:47:28.190Z,0.98
2023-01-19T21:49:54.985Z,0.73
2023-01-19T21:52:21.559Z,0.77
2023-01-19T21:54:48.145Z,0.98
2023-01-19T21:57:15.271Z,0.52
2023-01-19T21:59:41.791Z,0.55
2023-01-19T22:02:12.547Z,0.80
2023-01-19T22:04:39.554Z,0.77
2023-01-19T22:07:06.886Z,0.77
2023-01-19T22:09:35.019Z,0.47
2023-01-19T22:12:02.296Z,0.90
2023-01-19T22:14:29.137Z,0.75
2023-01-19T22:16:55.747Z,0.73
2023-01-19T22:19:22.895Z,0.63
2023-01-19T22:21:49.595Z,0.60
2023-01-19T22:24:16.161Z,0.82
2023-01-19T22:26:43.035Z,0.70
2023-01-19T22:29:12.013Z,1.08
2023-01-19T22:31:39.524Z,0.70
2023-01-19T22:34:10.888Z,0.60
2023-01-19T22:36:37.999Z,1.00
2023-01-19T22:39:10.823Z,0.90
2023-01-19T22:41:41.353Z,0.40
2023-01-19T22:44:14.327Z,0.70
2023-01-19T22:46:41.448Z,0.68
2023-01-19T22:49:09.154Z,1.00
2023-01-19T22:51:36.364Z,1.00
2023-01-19T22:54:03.007Z,0.95
2023-01-19T22:56:32.405Z,0.85
2023-01-19T22:58:59.865Z,1.02
2023-01-19T23:01:30.311Z,0.90
2023-01-19T23:03:57.393Z,1.08
2023-01-19T23:06:28.250Z,0.80
2023-01-19T23:08:56.490Z,1.70
2023-01-19T23:11:25.656Z,1.58
2023-01-19T23:13:52.513Z,1.83
2023-01-19T23:16:19.558Z,1.60
2023-01-19T23:18:47.021Z,1.60
2023-01-19T23:24:04.453Z,1.75
2023-01-19T23:26:34.154Z,1.67
2023-01-19T23:29:02.122Z,1.40
2023-01-19T23:31:31.416Z,1.33
2023-01-19T23:34:01.552Z,1.30
2023-01-19T23:36:30.240Z,1.10
2023-01-19T23:38:59.599Z,1.88
2023-01-19T23:41:28.725Z,1.98
2023-01-19T23:43:55.465Z,3.67
2023-01-19T23:46:22.563Z,3.65
2023-01-19T23:48:49.668Z,2.70
2023-01-19T23:51:19.586Z,2.10
2023-01-19T23:53:46.935Z,2.17
2023-01-19T23:56:17.547Z,2.15
